createdAt,value
2019-04-04T00:02:09.337Z,3.90
2019-04-04T00:04:39.802Z,3.80
2019-04-04T00:07:10.334Z,3.50
2019-04-04T00:09:40.835Z,3.80
2019-04-04T00:12:11.294Z,3.90
2019-04-04T00:14:43.497Z,3.50
2019-04-04T00:17:13.950Z,3.77
2019-04-04T00:19:44.342Z,4.27
2019-04-04T00:22:14.854Z,4.27
2019-04-04T00:24:45.614Z,4.40
2019-04-04T00:27:16.075Z,4.27
2019-04-04T00:29:47.965Z,4.23
2019-04-04T00:32:20.670Z,4.23
2019-04-04T00:34:51.034Z,3.97
2019-04-04T00:37:21.586Z,4.50
2019-04-04T00:39:52.071Z,4.50
2019-04-04T00:42:22.629Z,4.47
2019-04-04T00:44:55.491Z,4.50
2019-04-04T00:47:25.389Z,4.73
2019-04-04T00:49:55.854Z,4.67
2019-04-04T00:52:27.322Z,4.43
2019-04-04T00:54:57.796Z,4.90
2019-04-04T00:57:28.357Z,4.50
2019-04-04T00:59:58.847Z,4.70
2019-04-04T01:02:29.726Z,4.87
2019-04-04T01:05:01.651Z,4.83
2019-04-04T01:07:33.905Z,4.77
2019-04-04T01:10:05.075Z,4.87
2019-04-04T01:12:35.771Z,5.00
2019-04-04T01:15:06.989Z,5.07
2019-04-04T01:17:37.467Z,5.10
2019-04-04T01:20:09.541Z,4.80
2019-04-04T01:22:40.073Z,4.70
2019-04-04T01:25:10.551Z,4.80
2019-04-04T01:27:41.015Z,4.93
2019-04-04T01:30:12.602Z,5.07
2019-04-04T01:32:43.227Z,4.57
2019-04-04T01:35:13.755Z,4.90
2019-04-04T01:37:44.239Z,5.10
2019-04-04T01:40:14.603Z,5.20
2019-04-04T01:42:44.855Z,4.90
2019-04-04T01:45:15.391Z,4.97
2019-04-04T01:47:45.973Z,4.97
2019-04-04T01:50:17.898Z,4.93
2019-04-04T01:52:48.191Z,5.00
2019-04-04T01:55:18.519Z,5.10
2019-04-04T01:57:48.799Z,4.97
2019-04-04T02:00:20.395Z,4.90
2019-04-04T02:02:51.929Z,5.10
2019-04-04T02:05:22.860Z,5.00
2019-04-04T02:07:53.188Z,4.60
2019-04-04T02:10:23.612Z,5.20
2019-04-04T02:12:53.919Z,5.60
2019-04-04T02:15:24.275Z,4.60
2019-04-04T02:17:55.054Z,5.13
2019-04-04T02:20:26.959Z,5.50
2019-04-04T02:22:57.551Z,5.03
2019-04-04T02:25:27.802Z,5.03
2019-04-04T02:27:58.142Z,4.97
2019-04-04T02:30:28.599Z,4.73
2019-04-04T02:33:00.513Z,5.30
2019-04-04T02:35:31.268Z,5.23
2019-04-04T02:38:01.532Z,5.27
2019-04-04T02:40:31.892Z,4.93
2019-04-04T02:43:02.765Z,5.40
2019-04-04T02:45:33.323Z,5.50
2019-04-04T02:48:05.425Z,5.57
2019-04-04T02:50:35.929Z,5.20
2019-04-04T02:53:06.563Z,5.03
2019-04-04T02:55:36.957Z,5.13
2019-04-04T02:58:07.300Z,5.37
2019-04-04T03:00:37.724Z,5.43
2019-04-04T03:03:09.373Z,5.07
2019-04-04T03:05:40.148Z,5.50
2019-04-04T03:08:10.414Z,5.47
2019-04-04T03:10:40.769Z,5.27
2019-04-04T03:13:11.235Z,4.87
2019-04-04T03:15:44.579Z,5.27
2019-04-04T03:18:13.672Z,5.17
2019-04-04T03:20:44.044Z,5.43
2019-04-04T03:23:14.312Z,5.50
2019-04-04T03:25:46.893Z,5.53
2019-04-04T03:28:16.613Z,5.07
2019-04-04T03:30:51.695Z,4.90
2019-04-04T03:33:18.941Z,5.27
2019-04-04T03:35:49.307Z,5.67
2019-04-04T03:38:19.727Z,5.33
2019-04-04T03:40:49.992Z,5.20
2019-04-04T03:43:20.323Z,6.10
2019-04-04T03:45:50.684Z,5.20
2019-04-04T03:48:22.032Z,5.60
2019-04-04T03:50:52.420Z,5.57
2019-04-04T03:53:23.416Z,6.10
2019-04-04T03:55:53.832Z,6.13
2019-04-04T03:58:27.025Z,5.60
2019-04-04T04:00:56.383Z,5.43
2019-04-04T04:03:26.801Z,6.00
2019-04-04T04:05:57.123Z,5.50
2019-04-04T04:08:27.460Z,5.47
2019-04-04T04:10:57.749Z,5.60
2019-04-04T04:13:28.041Z,5.90
2019-04-04T04:16:02.707Z,5.30
2019-04-04T04:18:30.601Z,6.03
2019-04-04T04:21:01.540Z,6.07
2019-04-04T04:23:31.840Z,5.20
2019-04-04T04:26:02.109Z,6.57
2019-04-04T04:28:32.463Z,6.00
2019-04-04T04:31:02.708Z,5.97
2019-04-04T04:33:33.085Z,6.27
2019-04-04T04:36:03.650Z,5.53
2019-04-04T04:38:33.940Z,6.40
2019-04-04T04:41:05.265Z,6.20
2019-04-04T04:43:35.675Z,6.10
2019-04-04T04:46:06.097Z,5.53
2019-04-04T04:48:36.505Z,5.90
2019-04-04T04:51:06.952Z,5.80
2019-04-04T04:53:37.496Z,5.67
2019-04-04T04:56:07.736Z,6.37
2019-04-04T04:58:38.056Z,6.20
2019-04-04T05:01:08.356Z,6.53
2019-04-04T05:03:38.820Z,6.90
2019-04-04T05:06:09.152Z,7.27
2019-04-04T05:08:41.059Z,7.50
2019-04-04T05:11:14.445Z,6.07
2019-04-04T05:13:43.955Z,6.43
2019-04-04T05:16:14.298Z,10.60
2019-04-04T05:18:47.519Z,10.23
2019-04-04T05:21:24.933Z,7.93
2019-04-04T05:23:48.743Z,7.10
2019-04-04T05:26:19.394Z,5.93
2019-04-04T05:28:49.698Z,6.20
2019-04-04T05:31:20.104Z,6.57
2019-04-04T05:33:50.421Z,6.10
2019-04-04T05:36:20.883Z,7.53
2019-04-04T05:38:51.475Z,6.23
2019-04-04T05:41:21.819Z,6.43
2019-04-04T05:43:52.104Z,6.67
2019-04-04T05:46:22.760Z,6.93
2019-04-04T05:48:53.123Z,6.10
2019-04-04T05:51:23.761Z,5.93
2019-04-04T05:53:54.084Z,6.83
2019-04-04T05:56:24.548Z,7.00
2019-04-04T05:58:55.013Z,6.33
2019-04-04T06:01:25.519Z,6.60
2019-04-04T06:03:56.007Z,6.93
2019-04-04T06:06:26.665Z,6.97
2019-04-04T06:08:57.104Z,7.43
2019-04-04T06:11:27.430Z,6.93
2019-04-04T06:13:59.048Z,6.83
2019-04-04T06:16:30.016Z,7.10
2019-04-04T06:19:00.340Z,7.00
2019-04-04T06:21:31.031Z,7.50
2019-04-04T06:24:01.342Z,6.63
2019-04-04T06:26:31.723Z,7.33
2019-04-04T06:29:02.076Z,7.60
2019-04-04T06:31:32.412Z,6.87
2019-04-04T06:34:05.667Z,6.63
2019-04-04T06:36:34.900Z,6.90
2019-04-04T06:39:07.874Z,7.47
2019-04-04T06:41:38.448Z,6.90
2019-04-04T06:44:08.866Z,7.37
2019-04-04T06:46:39.202Z,7.27
2019-04-04T06:49:09.564Z,7.20
2019-04-04T06:51:41.073Z,6.70
2019-04-04T06:54:11.379Z,6.67
2019-04-04T06:56:41.902Z,6.53
2019-04-04T06:59:12.453Z,6.47
2019-04-04T07:01:43.044Z,6.10
2019-04-04T07:04:13.541Z,6.40
2019-04-04T07:06:43.940Z,6.20
2019-04-04T07:09:14.204Z,6.90
2019-04-04T07:11:44.816Z,6.70
2019-04-04T07:14:15.136Z,6.87
2019-04-04T07:16:45.816Z,6.30
2019-04-04T07:19:16.132Z,7.27
2019-04-04T07:21:46.383Z,7.00
2019-04-04T07:24:16.648Z,6.00
2019-04-04T07:26:46.903Z,6.00
2019-04-04T07:29:17.269Z,5.83
2019-04-04T07:31:47.632Z,5.73
2019-04-04T07:34:18.099Z,5.50
2019-04-04T07:36:49.096Z,5.23
2019-04-04T07:39:20.525Z,5.17
2019-04-04T07:41:50.922Z,5.20
2019-04-04T07:44:23.233Z,5.03
2019-04-04T07:46:53.229Z,5.20
2019-04-04T07:49:23.938Z,5.43
2019-04-04T07:51:55.011Z,6.17
2019-04-04T07:54:25.436Z,5.57
2019-04-04T07:56:55.724Z,6.17
2019-04-04T07:59:25.979Z,6.50
2019-04-04T08:01:56.400Z,7.07
2019-04-04T08:04:26.890Z,6.03
2019-04-04T08:06:57.244Z,6.23
2019-04-04T08:09:27.734Z,5.37
2019-04-04T08:11:58.115Z,5.70
2019-04-04T08:14:28.712Z,5.70
2019-04-04T08:16:59.066Z,6.00
2019-04-04T08:19:29.416Z,6.10
2019-04-04T08:21:59.787Z,6.00
2019-04-04T08:24:30.136Z,5.83
2019-04-04T08:27:00.477Z,5.33
2019-04-04T08:29:30.760Z,6.00
2019-04-04T08:32:01.288Z,5.83
2019-04-04T08:34:31.696Z,5.80
2019-04-04T08:37:02.033Z,5.73
2019-04-04T08:39:32.467Z,4.73
2019-04-04T08:42:02.897Z,4.77
2019-04-04T08:44:33.424Z,5.00
2019-04-04T08:47:03.783Z,5.10
2019-04-04T08:49:34.057Z,5.80
2019-04-04T08:52:16.110Z,5.37
2019-04-04T08:54:36.556Z,5.17
2019-04-04T08:57:06.932Z,5.10
2019-04-04T08:59:37.189Z,4.80
2019-04-04T09:02:07.632Z,4.90
2019-04-04T09:04:37.972Z,4.33
2019-04-04T09:07:08.273Z,4.30
2019-04-04T09:09:38.712Z,4.43
2019-04-04T09:12:09.359Z,4.57
2019-04-04T09:14:41.216Z,4.50
2019-04-04T09:17:11.908Z,4.00
2019-04-04T09:19:42.401Z,4.03
2019-04-04T09:22:12.744Z,4.10
2019-04-04T09:24:43.007Z,3.60
2019-04-04T09:27:13.524Z,3.20
2019-04-04T09:29:43.936Z,3.20
2019-04-04T09:32:14.380Z,4.30
2019-04-04T09:34:44.688Z,4.50
2019-04-04T09:37:15.049Z,4.03
2019-04-04T09:39:45.392Z,3.60
2019-04-04T09:42:16.312Z,4.27
2019-04-04T09:44:46.908Z,4.10
2019-04-04T09:47:17.240Z,4.40
2019-04-04T09:49:47.664Z,3.80
2019-04-04T09:52:17.960Z,3.80
2019-04-04T09:54:48.288Z,3.80
2019-04-04T09:57:19.628Z,4.37
2019-04-04T09:59:49.966Z,3.97
2019-04-04T10:02:20.400Z,4.03
2019-04-04T10:04:50.776Z,4.23
2019-04-04T10:07:21.109Z,4.13
2019-04-04T10:09:51.537Z,4.13
2019-04-04T10:12:21.973Z,3.90
2019-04-04T10:14:52.312Z,4.37
2019-04-04T10:17:22.911Z,4.83
2019-04-04T10:19:53.244Z,4.50
2019-04-04T10:22:23.568Z,3.97
2019-04-04T10:24:53.902Z,4.57
2019-04-04T10:27:24.328Z,5.03
2019-04-04T10:29:55.664Z,5.03
2019-04-04T10:32:26.385Z,4.43
2019-04-04T10:34:56.760Z,4.40
2019-04-04T10:37:27.113Z,4.47
2019-04-04T10:39:57.457Z,4.50
2019-04-04T10:42:27.861Z,4.83
2019-04-04T10:44:58.242Z,4.70
2019-04-04T10:47:28.549Z,4.17
2019-04-04T10:49:58.892Z,4.30
2019-04-04T10:52:30.309Z,4.33
2019-04-04T10:55:01.619Z,4.20
2019-04-04T10:57:32.199Z,4.47
2019-04-04T11:00:03.340Z,4.60
2019-04-04T11:02:34.985Z,4.70
2019-04-04T11:05:06.361Z,5.27
2019-04-04T11:07:36.764Z,4.40
2019-04-04T11:10:07.263Z,4.00
2019-04-04T11:12:37.598Z,4.73
2019-04-04T11:15:08.037Z,5.70
2019-04-04T11:17:38.329Z,6.30
2019-04-04T11:20:08.749Z,6.30
2019-04-04T11:22:39.121Z,6.03
2019-04-04T11:25:09.564Z,7.10
2019-04-04T11:27:40.112Z,7.13
2019-04-04T11:30:12.693Z,7.13
2019-04-04T11:32:43.046Z,7.30
2019-04-04T11:35:13.492Z,7.60
2019-04-04T11:37:44.181Z,7.73
2019-04-04T11:40:14.805Z,7.97
2019-04-04T11:42:45.274Z,8.33
2019-04-04T11:45:15.796Z,8.57
2019-04-04T11:47:46.233Z,9.60
2019-04-04T11:50:16.657Z,8.67
2019-04-04T11:52:47.017Z,9.33
2019-04-04T11:55:17.310Z,10.10
2019-04-04T11:57:47.744Z,11.50
2019-04-04T12:00:24.413Z,10.93
2019-04-04T12:02:54.764Z,11.17
2019-04-04T12:05:25.342Z,10.20
2019-04-04T12:07:55.772Z,9.90
2019-04-04T12:10:26.207Z,10.33
2019-04-04T12:12:58.558Z,10.63
2019-04-04T12:15:28.661Z,11.87
2019-04-04T12:17:58.977Z,12.20
2019-04-04T12:20:29.406Z,12.97
2019-04-04T12:22:59.757Z,12.03
2019-04-04T12:25:30.076Z,11.37
2019-04-04T12:28:00.513Z,11.73
2019-04-04T12:30:31.821Z,10.63
2019-04-04T12:33:02.209Z,11.50
2019-04-04T12:35:32.902Z,11.33
2019-04-04T12:38:03.300Z,12.00
2019-04-04T12:40:33.664Z,13.03
2019-04-04T12:43:04.317Z,14.20
2019-04-04T12:45:34.729Z,15.50
2019-04-04T12:48:05.217Z,15.27
2019-04-04T12:50:35.978Z,15.47
2019-04-04T12:53:10.101Z,16.20
2019-04-04T12:55:40.421Z,15.63
2019-04-04T12:58:11.072Z,15.57
2019-04-04T13:00:41.537Z,17.10
2019-04-04T13:03:11.982Z,15.60
2019-04-04T13:05:42.646Z,16.57
2019-04-04T13:08:13.058Z,19.20
2019-04-04T13:10:43.336Z,19.13
2019-04-04T13:13:13.745Z,19.47
2019-04-04T13:15:44.082Z,19.70
2019-04-04T13:18:14.328Z,19.03
2019-04-04T13:20:44.778Z,17.80
2019-04-04T13:23:15.029Z,18.73
2019-04-04T13:25:45.389Z,19.57
2019-04-04T13:28:15.749Z,18.37
2019-04-04T13:30:46.106Z,17.37
2019-04-04T13:33:16.864Z,17.37
2019-04-04T13:35:47.329Z,16.23
2019-04-04T13:38:17.667Z,15.70
2019-04-04T13:40:48.057Z,14.00
2019-04-04T13:43:18.402Z,9.27
2019-04-04T13:45:48.862Z,12.03
2019-04-04T13:48:20.914Z,9.60
2019-04-04T13:50:51.189Z,8.90
2019-04-04T13:53:25.200Z,9.23
2019-04-04T13:55:53.573Z,9.20
2019-04-04T13:58:24.104Z,9.73
2019-04-04T14:00:54.578Z,10.37
2019-04-04T14:03:24.890Z,9.63
2019-04-04T14:05:55.203Z,9.77
2019-04-04T14:08:25.570Z,10.00
2019-04-04T14:10:58.443Z,9.17
2019-04-04T14:13:27.981Z,10.07
2019-04-04T14:15:58.648Z,9.87
2019-04-04T14:18:38.930Z,11.00
2019-04-04T14:21:03.821Z,9.30
2019-04-04T14:23:33.086Z,9.60
2019-04-04T14:26:22.582Z,8.43
2019-04-04T14:28:53.034Z,8.93
2019-04-04T14:31:23.326Z,8.80
2019-04-04T14:33:53.865Z,6.20
2019-04-04T14:36:24.151Z,6.27
2019-04-04T14:38:54.607Z,8.27
2019-04-04T14:41:25.118Z,7.27
2019-04-04T14:43:55.541Z,7.30
2019-04-04T14:46:26.022Z,8.23
2019-04-04T14:48:56.483Z,8.20
2019-04-04T14:51:26.830Z,7.97
2019-04-04T14:53:57.969Z,8.20
2019-04-04T14:56:29.172Z,7.07
2019-04-04T14:58:59.757Z,8.23
2019-04-04T15:01:30.128Z,8.73
2019-04-04T15:04:00.386Z,9.50
2019-04-04T15:06:30.825Z,11.30
2019-04-04T15:09:01.089Z,14.00
2019-04-04T15:11:33.070Z,13.20
2019-04-04T15:14:04.850Z,13.40
2019-04-04T15:16:35.290Z,14.13
2019-04-04T15:19:09.334Z,14.07
2019-04-04T15:21:39.759Z,14.70
2019-04-04T15:24:10.281Z,14.40
2019-04-04T15:26:40.846Z,12.87
2019-04-04T15:29:11.104Z,12.33
2019-04-04T15:31:41.458Z,12.70
2019-04-04T15:34:12.703Z,11.73
2019-04-04T15:36:42.960Z,10.40
2019-04-04T15:39:16.073Z,10.60
2019-04-04T15:41:46.797Z,9.90
2019-04-04T15:44:17.543Z,8.23
2019-04-04T15:47:02.918Z,8.67
2019-04-04T15:49:33.206Z,6.97
2019-04-04T15:52:06.654Z,6.50
2019-04-04T15:54:37.056Z,7.33
2019-04-04T15:57:07.470Z,7.30
2019-04-04T15:59:37.833Z,7.17
2019-04-04T16:02:08.311Z,6.93
2019-04-04T16:04:38.653Z,8.10
2019-04-04T16:07:09.231Z,8.93
2019-04-04T16:09:40.007Z,10.07
2019-04-04T16:12:10.301Z,10.87
2019-04-04T16:14:40.659Z,11.10
2019-04-04T16:17:11.101Z,11.90
2019-04-04T16:19:42.458Z,13.30
2019-04-04T16:22:12.746Z,13.17
2019-04-04T16:24:43.131Z,12.43
2019-04-04T16:27:13.600Z,12.43
2019-04-04T16:30:03.265Z,11.53
2019-04-04T16:32:34.746Z,12.07
2019-04-04T16:35:05.154Z,21.90
2019-04-04T16:37:35.567Z,12.43
2019-04-04T16:40:09.330Z,11.23
2019-04-04T16:42:38.678Z,12.30
2019-04-04T16:45:09.347Z,11.80
2019-04-04T16:47:39.763Z,11.63
2019-04-04T16:50:11.183Z,11.27
2019-04-04T16:52:41.559Z,12.00
2019-04-04T16:55:12.058Z,12.60
2019-04-04T16:57:43.540Z,13.47
2019-04-04T17:00:15.141Z,13.00
2019-04-04T17:02:45.486Z,12.87
2019-04-04T17:05:16.083Z,13.27
2019-04-04T17:07:46.434Z,12.33
2019-04-04T17:10:17.459Z,11.40
2019-04-04T17:12:47.898Z,13.13
2019-04-04T17:15:18.364Z,13.50
2019-04-04T17:17:48.733Z,12.10
2019-04-04T17:20:20.746Z,11.57
2019-04-04T17:22:51.295Z,13.07
2019-04-04T17:25:21.546Z,11.70
2019-04-04T17:27:51.983Z,12.70
2019-04-04T17:30:22.394Z,13.93
2019-04-04T17:32:52.887Z,13.90
2019-04-04T17:35:23.397Z,13.53
2019-04-04T17:37:53.958Z,14.70
2019-04-04T17:40:24.322Z,13.40
2019-04-04T17:42:54.603Z,12.17
2019-04-04T17:45:25.243Z,13.97
2019-04-04T17:47:55.788Z,13.10
2019-04-04T17:50:26.358Z,12.03
2019-04-04T17:52:57.106Z,13.67
2019-04-04T17:55:27.645Z,14.37
2019-04-04T17:57:58.119Z,16.90
2019-04-04T18:00:29.666Z,14.23
2019-04-04T18:03:00.002Z,16.73
2019-04-04T18:05:30.718Z,14.03
2019-04-04T18:08:01.159Z,11.37
2019-04-04T18:10:32.880Z,9.77
2019-04-04T18:13:03.147Z,10.20
2019-04-04T18:15:33.590Z,9.67
2019-04-04T18:18:04.810Z,9.37
2019-04-04T18:20:35.271Z,10.07
2019-04-04T18:23:05.685Z,10.77
2019-04-04T18:25:35.947Z,9.63
2019-04-04T18:28:06.287Z,9.30
2019-04-04T18:30:36.676Z,10.50
2019-04-04T18:33:07.196Z,9.73
2019-04-04T18:35:38.483Z,9.33
2019-04-04T18:38:09.073Z,9.70
2019-04-04T18:40:39.524Z,9.10
2019-04-04T18:43:09.894Z,8.90
2019-04-04T18:45:40.312Z,9.33
2019-04-04T18:48:10.814Z,9.67
2019-04-04T18:50:41.198Z,9.27
2019-04-04T18:53:11.507Z,9.53
2019-04-04T18:55:41.811Z,9.43
2019-04-04T18:58:12.255Z,9.00
2019-04-04T19:00:42.719Z,8.77
2019-04-04T19:03:13.452Z,9.30
2019-04-04T19:05:43.910Z,9.60
2019-04-04T19:08:14.362Z,9.37
2019-04-04T19:10:44.860Z,9.00
2019-04-04T19:13:15.284Z,8.47
2019-04-04T19:15:45.794Z,8.50
2019-04-04T19:18:16.200Z,8.70
2019-04-04T19:20:46.587Z,9.23
2019-04-04T19:23:17.271Z,10.17
2019-04-04T19:25:47.677Z,12.57
2019-04-04T19:28:18.040Z,9.53
2019-04-04T19:30:48.362Z,10.53
2019-04-04T19:33:18.789Z,10.10
2019-04-04T19:35:49.081Z,9.37
2019-04-04T19:38:19.521Z,9.40
2019-04-04T19:40:49.891Z,8.97
2019-04-04T19:43:20.352Z,8.57
2019-04-04T19:45:50.706Z,9.47
2019-04-04T19:48:21.129Z,9.00
2019-04-04T19:50:51.608Z,8.57
2019-04-04T19:53:22.929Z,9.57
2019-04-04T19:55:53.295Z,9.37
2019-04-04T19:58:23.665Z,9.13
2019-04-04T20:00:54.162Z,9.47
2019-04-04T20:03:24.526Z,9.70
2019-04-04T20:05:54.937Z,9.20
2019-04-04T20:08:25.318Z,9.20
2019-04-04T20:10:55.649Z,9.70
2019-04-04T20:13:31.205Z,10.63
2019-04-04T20:15:58.424Z,9.57
2019-04-04T20:18:28.969Z,10.07
2019-04-04T20:20:59.337Z,10.33
2019-04-04T20:23:29.753Z,12.03
2019-04-04T20:26:00.100Z,10.83
2019-04-04T20:28:30.525Z,10.83
2019-04-04T20:31:01.652Z,10.33
2019-04-04T20:33:32.076Z,11.37
2019-04-04T20:36:02.586Z,11.93
2019-04-04T20:38:33.708Z,12.23
2019-04-04T20:41:05.365Z,12.77
2019-04-04T20:43:43.145Z,11.20
2019-04-04T20:46:08.753Z,9.70
2019-04-04T20:48:39.282Z,9.27
2019-04-04T20:51:09.718Z,9.30
2019-04-04T20:53:40.005Z,9.33
2019-04-04T20:56:10.340Z,10.33
2019-04-04T20:58:40.685Z,9.57
2019-04-04T21:01:11.084Z,10.40
2019-04-04T21:03:41.400Z,9.87
2019-04-04T21:06:13.208Z,9.93
2019-04-04T21:08:44.470Z,10.80
2019-04-04T21:11:14.755Z,10.53
2019-04-04T21:13:56.382Z,9.97
2019-04-04T21:16:23.030Z,10.20
2019-04-04T21:18:53.442Z,10.23
2019-04-04T21:21:24.761Z,11.13
2019-04-04T21:23:55.209Z,12.03
2019-04-04T21:26:25.556Z,10.83
2019-04-04T21:28:56.137Z,11.47
2019-04-04T21:31:27.654Z,12.13
2019-04-04T21:33:58.066Z,10.47
2019-04-04T21:36:28.685Z,10.83
2019-04-04T21:38:59.049Z,10.17
2019-04-04T21:41:29.534Z,10.67
2019-04-04T21:44:08.671Z,10.67
2019-04-04T21:46:32.239Z,10.23
2019-04-04T21:49:02.514Z,10.47
2019-04-04T21:51:32.765Z,10.57
2019-04-04T21:54:03.206Z,10.47
2019-04-04T21:56:33.549Z,10.90
2019-04-04T21:59:04.257Z,9.87
2019-04-04T22:01:34.669Z,10.03
2019-04-04T22:04:05.086Z,9.37
2019-04-04T22:06:35.508Z,9.87
2019-04-04T22:09:08.841Z,9.10
2019-04-04T22:11:39.342Z,9.40
2019-04-04T22:14:21.176Z,8.50
2019-04-04T22:16:41.754Z,9.13
2019-04-04T22:19:12.185Z,8.57
2019-04-04T22:21:42.530Z,8.17
2019-04-04T22:24:13.793Z,8.30
2019-04-04T22:26:44.093Z,8.03
2019-04-04T22:29:15.078Z,8.60
2019-04-04T22:31:45.445Z,8.20
2019-04-04T22:34:15.697Z,8.43
2019-04-04T22:36:46.206Z,8.87
2019-04-04T22:39:16.489Z,8.77
2019-04-04T22:41:46.806Z,8.93
2019-04-04T22:44:17.378Z,8.77
2019-04-04T22:46:47.653Z,8.77
2019-04-04T22:49:17.934Z,9.40
2019-04-04T22:51:48.486Z,10.03
2019-04-04T22:54:18.867Z,10.90
2019-04-04T22:56:49.129Z,10.67
2019-04-04T22:59:19.520Z,9.60
2019-04-04T23:01:49.905Z,8.13
2019-04-04T23:04:20.218Z,8.10
2019-04-04T23:06:50.693Z,8.50
2019-04-04T23:09:20.949Z,7.80
2019-04-04T23:11:51.229Z,8.67
2019-04-04T23:14:21.545Z,7.83
2019-04-04T23:16:51.943Z,7.80
2019-04-04T23:19:22.179Z,7.70
2019-04-04T23:21:52.479Z,7.17
2019-04-04T23:24:22.821Z,7.63
2019-04-04T23:26:53.187Z,7.97
2019-04-04T23:29:23.626Z,7.83
2019-04-04T23:31:54.009Z,8.03
2019-04-04T23:34:24.358Z,8.77
2019-04-04T23:36:54.682Z,9.40
2019-04-04T23:39:25.118Z,9.30
2019-04-04T23:41:55.383Z,10.00
2019-04-04T23:44:25.767Z,9.10
2019-04-04T23:46:56.101Z,8.87
2019-04-04T23:49:26.734Z,9.80
2019-04-04T23:51:57.078Z,9.37
2019-04-04T23:54:27.440Z,8.60
2019-04-04T23:56:57.703Z,9.67
2019-04-04T23:59:28.322Z,9.97
